Norton, TX (76865)

9:53 PM CDT on September 04, 2015 (GMT -0500)
Winters ISD | | Change Station
CLOSE
Current Station
Personal Weather Station
Location: Winters, TX
Elevation: 1870 ft
Nearby Weather Stations

Elev 1870 ft 31.97 °N, 99.96 °W | Updated 3 minutes ago

Partly Cloudy
Partly Cloudy
84.7 °F
Feels Like 85 °F
N
4.7
Wind Variable Wind from NE

Today
High -- | Low -- °F
--% Chance of Precip.
Yesterday
High -- | Low -- °F
Precip. -- in
7:17 AM 8:00 PM
Waning Gibbous, 53% visible
Pressure 29.76 in
Visibility 10.0 miles
Clouds Clear
Heat Index 85 °F
Dew Point 62 °F
Humidity 47%
Rainfall 0.00 in
Snow Depth Not available.
UV 0 out of 12
Pollen 9.70 out of 12
Air Quality Not available.
Flu Activity Not available.
METAR KDYS 050158Z AUTO 11011KT 10SM CLR 31/19 A2991 RMK AO2 SLP078 T03100190 $
Pressure 29.76 in
Visibility 10.0 miles
Clouds Clear
Heat Index 85 °F
Dew Point 62 °F
Humidity 47%
Rainfall 0.00 in
Snow Depth Not available.
UV 0 out of 12
Pollen 9.70 out of 12
Air Quality Not available.
Flu Activity Not available.
METAR KDYS 050158Z AUTO 11011KT 10SM CLR 31/19 A2991 RMK AO2 SLP078 T03100190 $

10-Day Weather Forecast

×

Almanac

Astronomy

Sep. 04, 2015 Rise Set
Actual Time
Civil Twilight
Nautical Twilight
Astronomical Twilight
Moon
Length of Visible Light
Length of Day
Tomorrow will be .
, % of the Moon is Illuminated

Today's Extremes

State Highs State Lows

Community

WunderPhotos

Upload Photos

1,852,392 photos uploaded!

WunderBlogs® & News

Nearby

Air Quality

  Air Quality AQ Index Pollutant
Not available.

Snow Depth

Station Depth Elevation

Earthquake Activity

City Distance Mag. Time & Date
Minimum magnitude displayed is 2.5.

Coastal Water Temperatures

Place Temperature

Stations

Nearby Weather Stations

Station Location Temp. Windchill Dew Point Humidity Wind Precip. Elev Updated Type